sensor_id;sensor_type;location;lat;lon;timestamp;pressure;altitude;pressure_sealevel;temperature;humidity
74466;BME280;62916;50.044;15.938;2024-03-23T00:54:54;98440.53;;;19.13;51.62
74466;BME280;62916;50.044;15.938;2024-03-23T00:57:25;98433.79;;;19.11;51.73
74466;BME280;62916;50.044;15.938;2024-03-23T00:59:55;98430.38;;;19.10;51.70
74466;BME280;62916;50.044;15.938;2024-03-23T01:02:26;98415.98;;;19.10;51.79
74466;BME280;62916;50.044;15.938;2024-03-23T01:04:56;98408.82;;;19.10;51.95
74466;BME280;62916;50.044;15.938;2024-03-23T01:07:27;98407.49;;;19.10;51.98
74466;BME280;62916;50.044;15.938;2024-03-23T01:09:57;98405.18;;;19.11;51.83
74466;BME280;62916;50.044;15.938;2024-03-23T01:12:28;98389.91;;;19.10;51.92
74466;BME280;62916;50.044;15.938;2024-03-23T01:14:58;98383.98;;;19.11;51.93
74466;BME280;62916;50.044;15.938;2024-03-23T01:17:29;98378.37;;;19.11;52.06
74466;BME280;62916;50.044;15.938;2024-03-23T01:19:59;98378.90;;;19.12;51.99
74466;BME280;62916;50.044;15.938;2024-03-23T01:22:30;98380.52;;;19.12;51.96
74466;BME280;62916;50.044;15.938;2024-03-23T01:25:00;98383.69;;;19.11;51.99
74466;BME280;62916;50.044;15.938;2024-03-23T01:27:31;98374.16;;;19.10;51.96
74466;BME280;62916;50.044;15.938;2024-03-23T01:30:02;98375.19;;;19.10;51.99
74466;BME280;62916;50.044;15.938;2024-03-23T01:32:32;98370.03;;;19.10;51.97
74466;BME280;62916;50.044;15.938;2024-03-23T01:35:03;98367.02;;;19.09;52.04
74466;BME280;62916;50.044;15.938;2024-03-23T01:37:33;98362.22;;;19.07;52.00
74466;BME280;62916;50.044;15.938;2024-03-23T01:40:06;98351.50;;;19.07;52.08
74466;BME280;62916;50.044;15.938;2024-03-23T01:42:37;98349.11;;;19.06;52.15
74466;BME280;62916;50.044;15.938;2024-03-23T01:45:09;98330.96;;;19.05;52.23
74466;BME280;62916;50.044;15.938;2024-03-23T01:47:40;98324.95;;;19.06;52.26
74466;BME280;62916;50.044;15.938;2024-03-23T01:50:11;98320.27;;;19.05;52.38
74466;BME280;62916;50.044;15.938;2024-03-23T01:52:42;98317.50;;;19.04;52.39
74466;BME280;62916;50.044;15.938;2024-03-23T01:55:13;98323.79;;;19.05;52.41
74466;BME280;62916;50.044;15.938;2024-03-23T01:57:44;98323.52;;;19.04;52.39
74466;BME280;62916;50.044;15.938;2024-03-23T02:00:16;98325.60;;;19.04;52.44
74466;BME280;62916;50.044;15.938;2024-03-23T02:02:47;98325.34;;;19.04;52.44
74466;BME280;62916;50.044;15.938;2024-03-23T02:05:17;98322.66;;;19.03;52.52
74466;BME280;62916;50.044;15.938;2024-03-23T02:07:48;98322.38;;;19.02;52.43
74466;BME280;62916;50.044;15.938;2024-03-23T02:10:21;98321.73;;;19.02;52.45
74466;BME280;62916;50.044;15.938;2024-03-23T02:12:52;98314.41;;;19.02;52.52
74466;BME280;62916;50.044;15.938;2024-03-23T02:15:22;98307.80;;;19.01;52.47
74466;BME280;62916;50.044;15.938;2024-03-23T02:17:53;98302.93;;;19.00;52.49
74466;BME280;62916;50.044;15.938;2024-03-23T02:20:23;98299.03;;;18.99;52.61
74466;BME280;62916;50.044;15.938;2024-03-23T02:22:54;98294.77;;;18.99;52.56
74466;BME280;62916;50.044;15.938;2024-03-23T02:25:25;98287.42;;;18.98;52.54
74466;BME280;62916;50.044;15.938;2024-03-23T02:27:55;98283.02;;;18.97;52.63
74466;BME280;62916;50.044;15.938;2024-03-23T02:30:28;98281.67;;;18.97;52.63
74466;BME280;62916;50.044;15.938;2024-03-23T02:33:00;98278.33;;;18.98;52.65
74466;BME280;62916;50.044;15.938;2024-03-23T02:35:30;98276.42;;;18.98;52.75
74466;BME280;62916;50.044;15.938;2024-03-23T02:38:01;98273.90;;;18.98;52.74
74466;BME280;62916;50.044;15.938;2024-03-23T02:40:32;98264.64;;;18.95;52.64
74466;BME280;62916;50.044;15.938;2024-03-23T02:43:02;98270.90;;;18.97;52.71
74466;BME280;62916;50.044;15.938;2024-03-23T02:45:33;98259.29;;;18.97;52.78
74466;BME280;62916;50.044;15.938;2024-03-23T02:48:04;98256.77;;;18.97;52.77
74466;BME280;62916;50.044;15.938;2024-03-23T02:50:35;98250.29;;;18.96;52.79
74466;BME280;62916;50.044;15.938;2024-03-23T02:53:06;98250.02;;;18.95;52.82
74466;BME280;62916;50.044;15.938;2024-03-23T02:55:37;98253.46;;;18.95;52.88
74466;BME280;62916;50.044;15.938;2024-03-23T02:58:07;98248.58;;;18.95;52.89
74466;BME280;62916;50.044;15.938;2024-03-23T03:00:38;98241.38;;;18.94;52.87
74466;BME280;62916;50.044;15.938;2024-03-23T03:03:10;98241.63;;;18.94;53.01
74466;BME280;62916;50.044;15.938;2024-03-23T03:05:40;98240.81;;;18.94;53.00
74466;BME280;62916;50.044;15.938;2024-03-23T03:08:11;98248.63;;;18.93;53.10
74466;BME280;62916;50.044;15.938;2024-03-23T03:10:42;98245.75;;;18.91;53.25
74466;BME280;62916;50.044;15.938;2024-03-23T03:13:12;98248.16;;;18.91;53.25
74466;BME280;62916;50.044;15.938;2024-03-23T03:15:43;98240.95;;;18.92;53.30
74466;BME280;62916;50.044;15.938;2024-03-23T03:18:13;98235.70;;;18.93;53.30
74466;BME280;62916;50.044;15.938;2024-03-23T03:20:44;98231.46;;;18.93;53.26
74466;BME280;62916;50.044;15.938;2024-03-23T03:23:14;98227.50;;;18.92;53.29
74466;BME280;62916;50.044;15.938;2024-03-23T03:25:45;98227.69;;;18.91;53.28
74466;BME280;62916;50.044;15.938;2024-03-23T03:28:16;98230.23;;;18.91;53.48
74466;BME280;62916;50.044;15.938;2024-03-23T03:30:47;98222.73;;;18.90;53.49
74466;BME280;62916;50.044;15.938;2024-03-23T03:33:18;98222.54;;;18.89;53.52
74466;BME280;62916;50.044;15.938;2024-03-23T03:35:48;98220.06;;;18.90;53.52
74466;BME280;62916;50.044;15.938;2024-03-23T03:38:21;98217.65;;;18.89;53.57
74466;BME280;62916;50.044;15.938;2024-03-23T03:40:51;98215.23;;;18.89;53.58
74466;BME280;62916;50.044;15.938;2024-03-23T03:43:22;98217.15;;;18.89;53.50
74466;BME280;62916;50.044;15.938;2024-03-23T03:45:56;98211.70;;;18.89;53.48
74466;BME280;62916;50.044;15.938;2024-03-23T03:48:27;98205.96;;;18.87;53.72
74466;BME280;62916;50.044;15.938;2024-03-23T03:50:58;98205.93;;;18.88;53.60
74466;BME280;62916;50.044;15.938;2024-03-23T03:53:29;98201.14;;;18.87;53.69
74466;BME280;62916;50.044;15.938;2024-03-23T03:56:03;98202.10;;;18.87;53.78
74466;BME280;62916;50.044;15.938;2024-03-23T03:58:33;98200.02;;;18.85;53.75
74466;BME280;62916;50.044;15.938;2024-03-23T04:01:04;98195.63;;;18.86;53.86
74466;BME280;62916;50.044;15.938;2024-03-23T04:03:35;98196.22;;;18.86;53.75
74466;BME280;62916;50.044;15.938;2024-03-23T04:06:06;98191.98;;;18.85;53.75
74466;BME280;62916;50.044;15.938;2024-03-23T04:08:36;98188.29;;;18.85;53.83
74466;BME280;62916;50.044;15.938;2024-03-23T04:11:07;98182.38;;;18.85;53.86
74466;BME280;62916;50.044;15.938;2024-03-23T04:13:38;98179.49;;;18.84;53.77
74466;BME280;62916;50.044;15.938;2024-03-23T04:16:10;98176.65;;;18.85;53.89
74466;BME280;62916;50.044;15.938;2024-03-23T04:18:41;98170.17;;;18.85;53.77
74466;BME280;62916;50.044;15.938;2024-03-23T04:21:13;98166.41;;;18.86;53.77
74466;BME280;62916;50.044;15.938;2024-03-23T04:23:44;98159.27;;;18.86;53.73
74466;BME280;62916;50.044;15.938;2024-03-23T04:26:14;98157.09;;;18.87;53.75
74466;BME280;62916;50.044;15.938;2024-03-23T04:28:45;98156.95;;;18.86;53.76
74466;BME280;62916;50.044;15.938;2024-03-23T04:31:16;98151.89;;;18.88;53.76
74466;BME280;62916;50.044;15.938;2024-03-23T04:33:46;98153.82;;;18.88;53.68
74466;BME280;62916;50.044;15.938;2024-03-23T04:36:16;98153.58;;;18.88;53.67
74466;BME280;62916;50.044;15.938;2024-03-23T04:38:48;98156.48;;;18.88;53.58
74466;BME280;62916;50.044;15.938;2024-03-23T04:41:22;98153.16;;;18.87;53.64
74466;BME280;62916;50.044;15.938;2024-03-23T04:43:52;98152.13;;;18.86;53.73
74466;BME280;62916;50.044;15.938;2024-03-23T04:46:23;98148.45;;;18.85;53.86
74466;BME280;62916;50.044;15.938;2024-03-23T04:48:56;98146.48;;;18.83;53.82
74466;BME280;62916;50.044;15.938;2024-03-23T04:51:27;98146.44;;;18.84;53.93
74466;BME280;62916;50.044;15.938;2024-03-23T04:53:57;98144.85;;;18.85;53.92
74466;BME280;62916;50.044;15.938;2024-03-23T04:56:28;98145.27;;;18.85;53.83
74466;BME280;62916;50.044;15.938;2024-03-23T04:58:59;98140.19;;;18.85;53.85
74466;BME280;62916;50.044;15.938;2024-03-23T05:01:30;98138.70;;;18.84;53.99
74466;BME280;62916;50.044;15.938;2024-03-23T05:04:02;98136.13;;;18.84;54.04
74466;BME280;62916;50.044;15.938;2024-03-23T05:06:32;98126.89;;;18.83;54.10
74466;BME280;62916;50.044;15.938;2024-03-23T05:09:04;98120.76;;;18.82;54.03
74466;BME280;62916;50.044;15.938;2024-03-23T05:11:35;98119.06;;;18.84;54.13
74466;BME280;62916;50.044;15.938;2024-03-23T05:14:06;98116.03;;;18.85;54.08
74466;BME280;62916;50.044;15.938;2024-03-23T05:16:37;98110.88;;;18.84;54.06
74466;BME280;62916;50.044;15.938;2024-03-23T05:19:07;98109.16;;;18.85;54.00
74466;BME280;62916;50.044;15.938;2024-03-23T05:21:38;98107.34;;;18.86;53.98
74466;BME280;62916;50.044;15.938;2024-03-23T05:24:09;98105.70;;;18.85;54.11
74466;BME280;62916;50.044;15.938;2024-03-23T05:26:39;98103.77;;;18.83;54.13
74466;BME280;62916;50.044;15.938;2024-03-23T05:29:10;98099.78;;;18.84;54.16
74466;BME280;62916;50.044;15.938;2024-03-23T05:31:43;98103.55;;;18.84;54.12
74466;BME280;62916;50.044;15.938;2024-03-23T05:34:13;98097.14;;;18.84;54.10
74466;BME280;62916;50.044;15.938;2024-03-23T05:36:44;98094.55;;;18.84;54.08
74466;BME280;62916;50.044;15.938;2024-03-23T05:39:14;98094.14;;;18.83;54.04
74466;BME280;62916;50.044;15.938;2024-03-23T05:41:45;98095.58;;;18.83;54.24
74466;BME280;62916;50.044;15.938;2024-03-23T05:44:16;98090.27;;;18.83;54.16
74466;BME280;62916;50.044;15.938;2024-03-23T05:46:46;98088.42;;;18.83;54.13
74466;BME280;62916;50.044;15.938;2024-03-23T05:49:18;98084.16;;;18.82;54.05
74466;BME280;62916;50.044;15.938;2024-03-23T05:51:49;98079.48;;;18.81;54.11
74466;BME280;62916;50.044;15.938;2024-03-23T05:54:19;98069.41;;;18.83;54.14
74466;BME280;62916;50.044;15.938;2024-03-23T05:56:50;98056.70;;;18.85;53.95
74466;BME280;62916;50.044;15.938;2024-03-23T05:59:24;98052.02;;;18.85;53.98
74466;BME280;62916;50.044;15.938;2024-03-23T06:01:56;98045.70;;;18.86;54.02
74466;BME280;62916;50.044;15.938;2024-03-23T06:04:26;98042.36;;;18.85;54.04
74466;BME280;62916;50.044;15.938;2024-03-23T06:06:57;98042.39;;;18.86;54.03
74466;BME280;62916;50.044;15.938;2024-03-23T06:09:28;98039.09;;;18.85;54.07
74466;BME280;62916;50.044;15.938;2024-03-23T06:12:00;98044.77;;;18.87;54.10
74466;BME280;62916;50.044;15.938;2024-03-23T06:14:31;98039.23;;;18.87;54.00
74466;BME280;62916;50.044;15.938;2024-03-23T06:17:02;98038.82;;;18.87;53.94
74466;BME280;62916;50.044;15.938;2024-03-23T06:19:32;98032.48;;;18.86;53.92
74466;BME280;62916;50.044;15.938;2024-03-23T06:22:03;98031.68;;;18.87;53.75
74466;BME280;62916;50.044;15.938;2024-03-23T06:24:36;98032.91;;;18.87;53.60
74466;BME280;62916;50.044;15.938;2024-03-23T06:27:07;98033.50;;;18.86;53.61
74466;BME280;62916;50.044;15.938;2024-03-23T06:29:38;98032.21;;;18.86;53.46
74466;BME280;62916;50.044;15.938;2024-03-23T06:32:09;98034.75;;;18.86;53.49
74466;BME280;62916;50.044;15.938;2024-03-23T06:34:42;98033.56;;;18.86;53.40
74466;BME280;62916;50.044;15.938;2024-03-23T06:37:13;98032.02;;;18.85;53.32
74466;BME280;62916;50.044;15.938;2024-03-23T06:39:45;98023.33;;;18.85;53.31
74466;BME280;62916;50.044;15.938;2024-03-23T06:42:16;98017.27;;;18.84;53.24
74466;BME280;62916;50.044;15.938;2024-03-23T06:44:47;98018.14;;;18.84;53.25
74466;BME280;62916;50.044;15.938;2024-03-23T06:47:17;98015.22;;;18.85;53.19
74466;BME280;62916;50.044;15.938;2024-03-23T06:49:48;98013.88;;;18.85;53.18
74466;BME280;62916;50.044;15.938;2024-03-23T06:52:20;98012.58;;;18.85;53.18
74466;BME280;62916;50.044;15.938;2024-03-23T06:54:50;98008.43;;;18.84;53.12
74466;BME280;62916;50.044;15.938;2024-03-23T06:57:21;98003.13;;;18.84;53.15
74466;BME280;62916;50.044;15.938;2024-03-23T06:59:52;98000.59;;;18.84;53.05
74466;BME280;62916;50.044;15.938;2024-03-23T07:02:22;97997.45;;;18.84;53.02
74466;BME280;62916;50.044;15.938;2024-03-23T07:04:53;97987.16;;;18.81;52.96
74466;BME280;62916;50.044;15.938;2024-03-23T07:07:24;97989.86;;;18.83;52.99
74466;BME280;62916;50.044;15.938;2024-03-23T07:09:54;97986.65;;;18.83;53.04
74466;BME280;62916;50.044;15.938;2024-03-23T07:12:25;97978.67;;;18.84;52.95
74466;BME280;62916;50.044;15.938;2024-03-23T07:14:55;97974.67;;;18.85;53.00
74466;BME280;62916;50.044;15.938;2024-03-23T07:17:26;97964.42;;;18.85;53.01
74466;BME280;62916;50.044;15.938;2024-03-23T07:19:57;97958.48;;;18.85;52.89
74466;BME280;62916;50.044;15.938;2024-03-23T07:22:28;97946.87;;;18.86;52.95
74466;BME280;62916;50.044;15.938;2024-03-23T07:25:01;97941.63;;;18.87;52.96
74466;BME280;62916;50.044;15.938;2024-03-23T07:27:32;97938.67;;;18.87;52.87
74466;BME280;62916;50.044;15.938;2024-03-23T07:30:04;97938.67;;;18.87;52.76
74466;BME280;62916;50.044;15.938;2024-03-23T07:32:34;97937.71;;;18.87;52.67
74466;BME280;62916;50.044;15.938;2024-03-23T07:35:05;97939.23;;;18.87;52.68
74466;BME280;62916;50.044;15.938;2024-03-23T07:37:36;97935.58;;;18.88;52.65
74466;BME280;62916;50.044;15.938;2024-03-23T07:40:08;97934.54;;;18.90;52.50
74466;BME280;62916;50.044;15.938;2024-03-23T07:42:39;97923.77;;;18.91;52.50
74466;BME280;62916;50.044;15.938;2024-03-23T07:45:10;97919.65;;;18.93;52.39
74466;BME280;62916;50.044;15.938;2024-03-23T07:47:41;97914.11;;;18.95;52.33
74466;BME280;62916;50.044;15.938;2024-03-23T07:50:12;97908.21;;;18.98;52.17
74466;BME280;62916;50.044;15.938;2024-03-23T07:52:42;97902.70;;;19.00;52.06
74466;BME280;62916;50.044;15.938;2024-03-23T07:55:13;97897.96;;;19.02;51.89
74466;BME280;62916;50.044;15.938;2024-03-23T07:57:44;97893.20;;;19.04;51.75
74466;BME280;62916;50.044;15.938;2024-03-23T08:00:16;97888.09;;;19.06;51.72
74466;BME280;62916;50.044;15.938;2024-03-23T08:02:47;97887.75;;;19.09;51.64
74466;BME280;62916;50.044;15.938;2024-03-23T08:05:17;97884.19;;;19.13;51.65
74466;BME280;62916;50.044;15.938;2024-03-23T08:07:53;97883.33;;;19.16;51.56
74466;BME280;62916;50.044;15.938;2024-03-23T08:10:23;97877.27;;;19.19;51.36
74466;BME280;62916;50.044;15.938;2024-03-23T08:12:56;97873.63;;;19.20;51.43
74466;BME280;62916;50.044;15.938;2024-03-23T08:15:27;97867.97;;;19.21;51.37
74466;BME280;62916;50.044;15.938;2024-03-23T08:17:57;97856.52;;;19.22;51.36
74466;BME280;62916;50.044;15.938;2024-03-23T08:20:32;97850.30;;;19.23;51.29
74466;BME280;62916;50.044;15.938;2024-03-23T08:23:03;97846.21;;;19.24;51.44
74466;BME280;62916;50.044;15.938;2024-03-23T08:25:34;97845.02;;;19.26;51.58
74466;BME280;62916;50.044;15.938;2024-03-23T08:28:06;97828.98;;;19.29;51.53
74466;BME280;62916;50.044;15.938;2024-03-23T08:30:37;97812.14;;;19.31;51.45
74466;BME280;62916;50.044;15.938;2024-03-23T08:33:08;97809.86;;;19.35;51.52
74466;BME280;62916;50.044;15.938;2024-03-23T08:35:38;97800.33;;;19.37;51.51
74466;BME280;62916;50.044;15.938;2024-03-23T08:38:09;97788.59;;;19.41;51.44
74466;BME280;62916;50.044;15.938;2024-03-23T08:40:40;97779.77;;;19.45;51.39
74466;BME280;62916;50.044;15.938;2024-03-23T08:43:11;97780.16;;;19.48;51.35
74466;BME280;62916;50.044;15.938;2024-03-23T08:45:41;97772.64;;;19.51;51.40
74466;BME280;62916;50.044;15.938;2024-03-23T08:48:12;97774.80;;;19.54;51.30
74466;BME280;62916;50.044;15.938;2024-03-23T08:50:42;97774.68;;;19.58;51.40
74466;BME280;62916;50.044;15.938;2024-03-23T08:53:13;97768.14;;;19.61;51.29
74466;BME280;62916;50.044;15.938;2024-03-23T08:55:54;97763.29;;;19.65;51.17
74466;BME280;62916;50.044;15.938;2024-03-23T08:58:26;97753.53;;;19.69;51.11
74466;BME280;62916;50.044;15.938;2024-03-23T09:01:03;97738.95;;;19.72;51.11
74466;BME280;62916;50.044;15.938;2024-03-23T09:03:38;97740.86;;;19.76;51.14
74466;BME280;62916;50.044;15.938;2024-03-23T09:06:10;97734.58;;;19.80;51.11
74466;BME280;62916;50.044;15.938;2024-03-23T09:08:41;97729.69;;;19.83;51.03
74466;BME280;62916;50.044;15.938;2024-03-23T09:11:12;97726.20;;;19.88;50.91
74466;BME280;62916;50.044;15.938;2024-03-23T09:13:43;97722.33;;;19.91;50.69
74466;BME280;62916;50.044;15.938;2024-03-23T09:16:14;97715.30;;;19.95;50.76
74466;BME280;62916;50.044;15.938;2024-03-23T09:18:44;97704.84;;;19.99;50.60
74466;BME280;62916;50.044;15.938;2024-03-23T09:21:15;97696.31;;;20.04;50.59
74466;BME280;62916;50.044;15.938;2024-03-23T09:23:46;97691.11;;;20.07;50.63
74466;BME280;62916;50.044;15.938;2024-03-23T09:26:16;97680.56;;;20.12;50.47
74466;BME280;62916;50.044;15.938;2024-03-23T09:28:49;97668.00;;;20.17;50.39
74466;BME280;62916;50.044;15.938;2024-03-23T09:31:22;97668.95;;;20.21;50.38
74466;BME280;62916;50.044;15.938;2024-03-23T09:33:53;97676.96;;;20.25;50.10
74466;BME280;62916;50.044;15.938;2024-03-23T09:36:24;97669.61;;;20.29;50.21
74466;BME280;62916;50.044;15.938;2024-03-23T09:38:54;97669.77;;;20.33;50.03
74466;BME280;62916;50.044;15.938;2024-03-23T09:41:25;97674.82;;;20.38;50.14
74466;BME280;62916;50.044;15.938;2024-03-23T09:43:56;97669.15;;;20.41;50.00
74466;BME280;62916;50.044;15.938;2024-03-23T09:46:27;97671.05;;;20.45;49.92
74466;BME280;62916;50.044;15.938;2024-03-23T09:48:58;97661.80;;;20.48;49.80
74466;BME280;62916;50.044;15.938;2024-03-23T09:51:29;97657.73;;;20.51;49.79
74466;BME280;62916;50.044;15.938;2024-03-23T09:54:00;97646.91;;;20.56;49.94
74466;BME280;62916;50.044;15.938;2024-03-23T09:56:30;97631.56;;;20.60;49.77
74466;BME280;62916;50.044;15.938;2024-03-23T09:59:04;97634.10;;;20.63;49.61
74466;BME280;62916;50.044;15.938;2024-03-23T10:01:36;97629.79;;;20.67;49.66
74466;BME280;62916;50.044;15.938;2024-03-23T10:04:07;97630.79;;;20.71;49.50
74466;BME280;62916;50.044;15.938;2024-03-23T10:06:37;97621.09;;;20.75;49.45
74466;BME280;62916;50.044;15.938;2024-03-23T10:09:17;97619.36;;;20.79;49.46
74466;BME280;62916;50.044;15.938;2024-03-23T10:11:48;97612.41;;;20.83;49.54
74466;BME280;62916;50.044;15.938;2024-03-23T10:14:30;97614.60;;;20.88;49.36
74466;BME280;62916;50.044;15.938;2024-03-23T10:17:13;97617.72;;;20.92;49.44
74466;BME280;62916;50.044;15.938;2024-03-23T10:19:44;97612.65;;;20.98;49.45
74466;BME280;62916;50.044;15.938;2024-03-23T10:22:17;97611.29;;;21.04;49.33
74466;BME280;62916;50.044;15.938;2024-03-23T10:24:48;97608.66;;;21.08;49.29
74466;BME280;62916;50.044;15.938;2024-03-23T10:27:20;97601.41;;;21.13;49.33
74466;BME280;62916;50.044;15.938;2024-03-23T10:29:51;97599.07;;;21.19;49.26
74466;BME280;62916;50.044;15.938;2024-03-23T10:32:21;97597.13;;;21.24;49.21
74466;BME280;62916;50.044;15.938;2024-03-23T10:34:52;97598.04;;;21.28;49.46
74466;BME280;62916;50.044;15.938;2024-03-23T10:37:23;97605.58;;;21.32;49.22
74466;BME280;62916;50.044;15.938;2024-03-23T10:39:53;97605.36;;;21.36;49.25
74466;BME280;62916;50.044;15.938;2024-03-23T10:42:24;97604.64;;;21.40;49.35
74466;BME280;62916;50.044;15.938;2024-03-23T10:44:55;97614.26;;;21.44;49.32
74466;BME280;62916;50.044;15.938;2024-03-23T10:47:27;97629.52;;;21.47;49.32
74466;BME280;62916;50.044;15.938;2024-03-23T10:49:57;97649.17;;;21.50;49.36
74466;BME280;62916;50.044;15.938;2024-03-23T10:52:29;97673.13;;;21.53;49.49
74466;BME280;62916;50.044;15.938;2024-03-23T10:55:00;97693.92;;;21.56;49.47
74466;BME280;62916;50.044;15.938;2024-03-23T10:57:36;97716.88;;;21.59;49.52
74466;BME280;62916;50.044;15.938;2024-03-23T11:00:12;97739.70;;;21.62;49.40
74466;BME280;62916;50.044;15.938;2024-03-23T11:02:44;97764.77;;;21.65;49.58
74466;BME280;62916;50.044;15.938;2024-03-23T11:05:31;97769.20;;;21.67;49.30
74466;BME280;62916;50.044;15.938;2024-03-23T11:08:02;97790.86;;;21.70;49.54
74466;BME280;62916;50.044;15.938;2024-03-23T11:10:33;97791.89;;;21.73;49.40
74466;BME280;62916;50.044;15.938;2024-03-23T11:16:14;97808.80;;;21.79;49.58
74466;BME280;62916;50.044;15.938;2024-03-23T11:18:45;97813.19;;;21.79;49.30
74466;BME280;62916;50.044;15.938;2024-03-23T11:21:54;97813.86;;;21.80;49.68
74466;BME280;62916;50.044;15.938;2024-03-23T11:24:25;97816.52;;;21.82;49.58
74466;BME280;62916;50.044;15.938;2024-03-23T11:26:56;97807.44;;;21.83;49.36
74466;BME280;62916;50.044;15.938;2024-03-23T11:29:28;97807.45;;;21.84;49.47
74466;BME280;62916;50.044;15.938;2024-03-23T11:31:59;97806.38;;;21.83;49.56
74466;BME280;62916;50.044;15.938;2024-03-23T11:34:35;97805.56;;;21.85;49.45
74466;BME280;62916;50.044;15.938;2024-03-23T11:37:08;97808.00;;;21.85;49.29
74466;BME280;62916;50.044;15.938;2024-03-23T11:39:39;97807.44;;;21.85;49.35
74466;BME280;62916;50.044;15.938;2024-03-23T11:42:09;97817.36;;;21.86;49.43
74466;BME280;62916;50.044;15.938;2024-03-23T11:44:46;97808.60;;;21.87;49.30
74466;BME280;62916;50.044;15.938;2024-03-23T11:47:17;97806.60;;;21.87;49.14
74466;BME280;62916;50.044;15.938;2024-03-23T11:49:50;97802.66;;;21.88;49.39
74466;BME280;62916;50.044;15.938;2024-03-23T11:52:20;97801.77;;;21.88;49.22
74466;BME280;62916;50.044;15.938;2024-03-23T11:54:51;97795.90;;;21.89;49.12
74466;BME280;62916;50.044;15.938;2024-03-23T11:57:22;97787.27;;;21.89;49.04
74466;BME280;62916;50.044;15.938;2024-03-23T11:59:53;97784.14;;;21.89;49.24
74466;BME280;62916;50.044;15.938;2024-03-23T12:02:24;97778.25;;;21.89;49.29
74466;BME280;62916;50.044;15.938;2024-03-23T12:04:55;97798.17;;;21.89;49.27
74466;BME280;62916;50.044;15.938;2024-03-23T12:07:25;97807.51;;;21.89;49.26
74466;BME280;62916;50.044;15.938;2024-03-23T12:10:07;97810.40;;;21.88;49.12
74466;BME280;62916;50.044;15.938;2024-03-23T12:12:38;97802.16;;;21.88;49.34
74466;BME280;62916;50.044;15.938;2024-03-23T12:15:10;97802.73;;;21.87;49.14
74466;BME280;62916;50.044;15.938;2024-03-23T12:17:42;97804.89;;;21.86;49.12
74466;BME280;62916;50.044;15.938;2024-03-23T12:20:13;97800.54;;;21.87;48.98
74466;BME280;62916;50.044;15.938;2024-03-23T12:22:43;97802.70;;;21.86;49.12
74466;BME280;62916;50.044;15.938;2024-03-23T12:25:16;97805.50;;;21.85;48.99
74466;BME280;62916;50.044;15.938;2024-03-23T12:27:46;97814.75;;;21.84;48.83
74466;BME280;62916;50.044;15.938;2024-03-23T12:30:17;97813.48;;;21.83;48.96
74466;BME280;62916;50.044;15.938;2024-03-23T12:32:48;97812.13;;;21.80;48.84
74466;BME280;62916;50.044;15.938;2024-03-23T12:35:19;97810.80;;;21.79;48.81
74466;BME280;62916;50.044;15.938;2024-03-23T12:37:50;97813.31;;;21.79;48.86
74466;BME280;62916;50.044;15.938;2024-03-23T12:40:21;97815.22;;;21.79;48.79
74466;BME280;62916;50.044;15.938;2024-03-23T12:42:52;97816.11;;;21.76;48.81
74466;BME280;62916;50.044;15.938;2024-03-23T12:45:23;97820.89;;;21.74;48.60
74466;BME280;62916;50.044;15.938;2024-03-23T12:47:53;97816.90;;;21.73;48.62
74466;BME280;62916;50.044;15.938;2024-03-23T12:50:25;97818.02;;;21.72;48.72
74466;BME280;62916;50.044;15.938;2024-03-23T12:52:55;97812.98;;;21.71;48.54
74466;BME280;62916;50.044;15.938;2024-03-23T12:55:26;97815.18;;;21.72;48.62
74466;BME280;62916;50.044;15.938;2024-03-23T12:57:56;97813.77;;;21.70;48.61
74466;BME280;62916;50.044;15.938;2024-03-23T13:00:27;97810.66;;;21.69;48.61
74466;BME280;62916;50.044;15.938;2024-03-23T13:02:58;97812.66;;;21.69;48.62
74466;BME280;62916;50.044;15.938;2024-03-23T13:05:29;97805.88;;;21.68;48.85
74466;BME280;62916;50.044;15.938;2024-03-23T13:07:59;97802.07;;;21.66;48.85
74466;BME280;62916;50.044;15.938;2024-03-23T13:10:30;97800.91;;;21.66;48.99
74466;BME280;62916;50.044;15.938;2024-03-23T13:13:01;97808.14;;;21.64;48.91
74466;BME280;62916;50.044;15.938;2024-03-23T13:15:32;97814.46;;;21.63;48.87
74466;BME280;62916;50.044;15.938;2024-03-23T13:18:03;97819.20;;;21.62;48.70
74466;BME280;62916;50.044;15.938;2024-03-23T13:20:36;97819.08;;;21.61;48.94
74466;BME280;62916;50.044;15.938;2024-03-23T13:23:07;97829.61;;;21.60;48.92
74466;BME280;62916;50.044;15.938;2024-03-23T13:25:38;97832.58;;;21.60;49.06
74466;BME280;62916;50.044;15.938;2024-03-23T13:28:09;97855.95;;;21.60;48.98
74466;BME280;62916;50.044;15.938;2024-03-23T13:30:39;97883.39;;;21.58;49.00
74466;BME280;62916;50.044;15.938;2024-03-23T13:33:11;97900.79;;;21.57;49.12
74466;BME280;62916;50.044;15.938;2024-03-23T13:35:50;97913.63;;;21.55;49.17
74466;BME280;62916;50.044;15.938;2024-03-23T13:38:21;97925.11;;;21.56;49.26
74466;BME280;62916;50.044;15.938;2024-03-23T13:40:54;97936.08;;;21.54;49.34
74466;BME280;62916;50.044;15.938;2024-03-23T13:43:26;97944.95;;;21.54;49.40
74466;BME280;62916;50.044;15.938;2024-03-23T13:45:58;97952.70;;;21.52;49.28
74466;BME280;62916;50.044;15.938;2024-03-23T13:48:29;97961.06;;;21.52;49.42
74466;BME280;62916;50.044;15.938;2024-03-23T13:51:01;97970.30;;;21.51;49.38
74466;BME280;62916;50.044;15.938;2024-03-23T13:53:32;97953.42;;;21.50;49.33
74466;BME280;62916;50.044;15.938;2024-03-23T13:56:05;97943.24;;;21.49;49.41
74466;BME280;62916;50.044;15.938;2024-03-23T13:58:35;97937.66;;;21.48;49.42
74466;BME280;62916;50.044;15.938;2024-03-23T14:01:07;97937.85;;;21.47;49.55
74466;BME280;62916;50.044;15.938;2024-03-23T14:03:38;97949.38;;;21.46;49.41
74466;BME280;62916;50.044;15.938;2024-03-23T14:06:09;97964.14;;;21.47;49.72
74466;BME280;62916;50.044;15.938;2024-03-23T14:08:40;97963.89;;;21.46;49.60